Fremont, New York
Current Conditions -  °F | °C
As of 8:35 AM on Sunday 21 Dec 2014 (Local Time) from KMSV Reporting Station
Overcast Overcast  
Wind Chill: 27°   Ceiling: 1100
Heat Index: 27°   Visibility: 4mi
Dew Point: 25°   Wind: 3mph
Humidity: 93%   Direction: 290°WNW
Pressure: 30.25"   Gusts: NA
Location:  41.8493°N, 75.0344°W
Report Text: KMSV 211335Z AUTO 29003KT 4SM SCT004 OVC011 M03/M04 A3025 RMK AO1
Loading
Personal Weather Stations






























Interactive Weather Map New forecast layout! Learn more

10-Day Weather Forecast

Advertisements
Track Severe Weather on mobile